Terminal Aerodrome Forecast
Issued by NWS

Home | Current Version | Previous Version | Text Only | Print | Product List | Glossary On
Versions: 1 2 3 4 5 6 7 8 9 10 11 12 13
000
FTUS45 KTFX 232300
TAFBZN
TAF
KBZN 232320Z 2400/2424 28007KT P6SM OVC060
     FM240300 26008KT P6SM VCSH SCT030 OVC050
     FM241200 26010KT P6SM OVC070=

USA.gov is the U.S. government's official web portal to all federal, state and local government web resources and services.